Private Wetterstation Sandau
Wetterdaten: Montag, 12.11.2012
Datum Zeit Temp. A. Feuchte A. Luftdruck Regen Wind Richtung Richtung Taupunkt Windchill
12.11.2012 00:01 6,4 C 89 % 1018,6 hPa 0,0 l/m 6,1 km/h (2 Bft) W-SW 247 4,7 C 5,3 C
12.11.2012 00:06 6,4 C 89 % 1018,8 hPa 0,0 l/m 6,5 km/h (2 Bft) W-SW 247 4,7 C 5,2 C
12.11.2012 00:11 6,4 C 89 % 1018,9 hPa 0,0 l/m 5,0 km/h (1 Bft) W-SW 247 4,7 C 5,7 C
12.11.2012 00:16 6,4 C 89 % 1018,8 hPa 0,0 l/m 5,8 km/h (2 Bft) W-SW 247 4,7 C 5,4 C
12.11.2012 00:21 6,4 C 89 % 1018,7 hPa 0,0 l/m 4,0 km/h (1 Bft) W 270 4,7 C 6,4 C
12.11.2012 00:26 6,3 C 89 % 1018,9 hPa 0,0 l/m 4,7 km/h (1 Bft) W 270 4,6 C 5,7 C
12.11.2012 00:31 6,3 C 89 % 1018,8 hPa 0,0 l/m 2,2 km/h (1 Bft) W 270 4,6 C 6,3 C
12.11.2012 00:36 6,2 C 89 % 1018,7 hPa 0,0 l/m 2,5 km/h (1 Bft) W 270 4,5 C 6,2 C
12.11.2012 00:41 6,1 C 89 % 1018,7 hPa 0,0 l/m 3,2 km/h (1 Bft) W 270 4,4 C 6,1 C
12.11.2012 00:46 6,1 C 89 % 1018,9 hPa 0,0 l/m 3,6 km/h (1 Bft) W 270 4,4 C 6,1 C
12.11.2012 00:51 6,0 C 89 % 1018,9 hPa 0,0 l/m 3,2 km/h (1 Bft) W-SW 247 4,3 C 6,0 C
12.11.2012 00:56 5,9 C 89 % 1018,9 hPa 0,0 l/m 5,0 km/h (1 Bft) W-SW 247 4,2 C 5,1 C
12.11.2012 01:01 5,9 C 89 % 1018,8 hPa 0,0 l/m 4,0 km/h (1 Bft) W 270 4,2 C 5,9 C
12.11.2012 01:06 5,9 C 90 % 1018,9 hPa 0,0 l/m 5,0 km/h (1 Bft) W-SW 247 4,4 C 5,1 C
12.11.2012 01:11 5,8 C 90 % 1018,9 hPa 0,0 l/m 7,2 km/h (2 Bft) W-SW 247 4,3 C 4,3 C
12.11.2012 01:16 5,8 C 90 % 1019,0 hPa 0,0 l/m 4,0 km/h (1 Bft) W-SW 247 4,3 C 5,8 C
12.11.2012 01:21 5,6 C 90 % 1019,1 hPa 0,0 l/m 2,2 km/h (1 Bft) W 270 4,1 C 5,6 C
12.11.2012 01:26 5,6 C 90 % 1019,2 hPa 0,0 l/m 4,3 km/h (1 Bft) W-SW 247 4,1 C 5,6 C
12.11.2012 01:31 5,5 C 90 % 1019,3 hPa 0,0 l/m 4,3 km/h (1 Bft) W 270 4,0 C 5,5 C
12.11.2012 01:36 5,5 C 90 % 1019,1 hPa 0,0 l/m 6,1 km/h (2 Bft) W 270 4,0 C 4,3 C
12.11.2012 01:41 5,4 C 90 % 1019,0 hPa 0,0 l/m 2,5 km/h (1 Bft) W 270 3,9 C 5,4 C
12.11.2012 01:46 5,3 C 90 % 1019,2 hPa 0,0 l/m 1,1 km/h (1 Bft) W 270 3,8 C 5,3 C
12.11.2012 01:51 5,3 C 90 % 1019,2 hPa 0,0 l/m 6,8 km/h (2 Bft) W-SW 247 3,8 C 3,8 C
12.11.2012 01:56 5,3 C 90 % 1019,3 hPa 0,0 l/m 0,0 km/h (0 Bft) SW 225 3,8 C 5,3 C
12.11.2012 02:01 5,3 C 90 % 1019,3 hPa 0,0 l/m 2,2 km/h (1 Bft) W-SW 247 3,8 C 5,3 C
12.11.2012 02:06 5,2 C 91 % 1019,4 hPa 0,0 l/m 4,0 km/h (1 Bft) W-SW 247 3,9 C 5,2 C
12.11.2012 02:11 5,2 C 91 % 1019,4 hPa 0,0 l/m 3,6 km/h (1 Bft) S-SW 202 3,9 C 5,2 C
12.11.2012 02:16 5,2 C 91 % 1019,5 hPa 0,0 l/m 7,9 km/h (2 Bft) W 270 3,9 C 3,4 C
12.11.2012 02:21 5,1 C 91 % 1019,5 hPa 0,0 l/m 6,5 km/h (2 Bft) W-SW 247 3,8 C 3,7 C
12.11.2012 02:26 5,1 C 91 % 1019,6 hPa 0,0 l/m 5,0 km/h (1 Bft) W-SW 247 3,8 C 4,2 C
12.11.2012 02:31 5,1 C 91 % 1019,7 hPa 0,0 l/m 6,1 km/h (2 Bft) SW 225 3,8 C 3,8 C
12.11.2012 02:36 5,1 C 91 % 1019,7 hPa 0,0 l/m 5,0 km/h (1 Bft) W-SW 247 3,8 C 4,2 C
12.11.2012 02:41 5,1 C 91 % 1019,7 hPa 0,0 l/m 4,3 km/h (1 Bft) S-SW 202 3,8 C 5,1 C
12.11.2012 02:46 5,0 C 91 % 1019,8 hPa 0,0 l/m 5,8 km/h (2 Bft) W-SW 247 3,7 C 3,8 C
12.11.2012 02:51 5,0 C 91 % 1019,7 hPa 0,0 l/m 5,4 km/h (1 Bft) W-SW 247 3,7 C 3,9 C
12.11.2012 02:56 5,0 C 91 % 1019,8 hPa 0,0 l/m 5,0 km/h (1 Bft) W-SW 247 3,7 C 4,1 C
12.11.2012 03:01 5,0 C 91 % 1019,9 hPa 0,0 l/m 5,4 km/h (1 Bft) SW 225 3,7 C 3,9 C
12.11.2012 03:06 5,0 C 91 % 1020,0 hPa 0,0 l/m 3,6 km/h (1 Bft) S 180 3,7 C 5,0 C
12.11.2012 03:11 4,9 C 91 % 1020,1 hPa 0,0 l/m 2,9 km/h (1 Bft) S-SW 202 3,6 C 4,9 C
12.11.2012 03:16 4,9 C 91 % 1020,2 hPa 0,0 l/m 1,8 km/h (1 Bft) S-SW 202 3,6 C 4,9 C
12.11.2012 03:21 4,8 C 91 % 1019,9 hPa 0,0 l/m 2,5 km/h (1 Bft) S-SW 202 3,5 C 4,8 C
12.11.2012 03:26 4,6 C 91 % 1020,0 hPa 0,0 l/m 2,2 km/h (1 Bft) SW 225 3,3 C 4,6 C
12.11.2012 03:31 4,4 C 91 % 1020,0 hPa 0,0 l/m 2,2 km/h (1 Bft) S-SW 202 3,1 C 4,4 C
12.11.2012 03:36 4,4 C 91 % 1020,2 hPa 0,0 l/m 4,0 km/h (1 Bft) S-SW 202 3,1 C 4,4 C
12.11.2012 03:41 4,3 C 91 % 1020,3 hPa 0,0 l/m 0,0 km/h (0 Bft) S-SW 202 3,0 C 4,3 C
12.11.2012 03:46 4,3 C 91 % 1020,3 hPa 0,0 l/m 8,3 km/h (2 Bft) W-SW 247 3,0 C 2,2 C
12.11.2012 03:51 4,3 C 91 % 1020,4 hPa 0,0 l/m 6,5 km/h (2 Bft) W-SW 247 3,0 C 2,8 C
12.11.2012 03:56 4,3 C 91 % 1020,4 hPa 0,0 l/m 3,2 km/h (1 Bft) S 180 3,0 C 4,3 C
12.11.2012 04:01 4,4 C 91 % 1020,4 hPa 0,0 l/m 6,5 km/h (2 Bft) SW 225 3,1 C 2,9 C
12.11.2012 04:06 4,4 C 91 % 1020,5 hPa 0,0 l/m 3,2 km/h (1 Bft) S-SW 202 3,1 C 4,4 C
12.11.2012 04:11 4,5 C 91 % 1020,5 hPa 0,0 l/m 8,3 km/h (2 Bft) W-SW 247 3,2 C 2,5 C
12.11.2012 04:16 4,6 C 92 % 1020,5 hPa 0,0 l/m 10,1 km/h (2 Bft) W-SW 247 3,4 C 2,2 C
12.11.2012 04:21 4,8 C 92 % 1020,7 hPa 0,0 l/m 12,6 km/h (3 Bft) W-SW 247 3,6 C 1,9 C
12.11.2012 04:26 4,9 C 92 % 1020,8 hPa 0,0 l/m 7,2 km/h (2 Bft) W-SW 247 3,7 C 3,2 C
12.11.2012 04:31 5,0 C 92 % 1020,7 hPa 0,0 l/m 13,7 km/h (3 Bft) W-SW 247 3,8 C 2,0 C
12.11.2012 04:36 5,1 C 92 % 1020,8 hPa 0,0 l/m 11,9 km/h (2 Bft) W 270 3,9 C 2,4 C
12.11.2012 04:41 5,2 C 92 % 1020,8 hPa 0,0 l/m 13,3 km/h (3 Bft) W 270 4,0 C 2,3 C
12.11.2012 04:46 5,2 C 92 % 1020,7 hPa 0,0 l/m 7,2 km/h (2 Bft) W-SW 247 4,0 C 3,6 C
12.11.2012 04:51 5,2 C 92 % 1020,8 hPa 0,0 l/m 9,7 km/h (2 Bft) W-SW 247 4,0 C 3,0 C
12.11.2012 04:56 5,1 C 92 % 1020,9 hPa 0,0 l/m 18,7 km/h (3 Bft) W 270 3,9 C 1,4 C
12.11.2012 05:01 5,1 C 92 % 1021,0 hPa 0,0 l/m 11,2 km/h (2 Bft) W 270 3,9 C 2,5 C
12.11.2012 05:06 5,1 C 92 % 1020,8 hPa 0,0 l/m 7,9 km/h (2 Bft) W-SW 247 3,9 C 3,3 C
12.11.2012 05:11 5,0 C 92 % 1021,0 hPa 0,0 l/m 12,6 km/h (3 Bft) W-SW 247 3,8 C 2,1 C
12.11.2012 05:16 4,9 C 92 % 1020,8 hPa 0,0 l/m 4,3 km/h (1 Bft) W 270 3,7 C 4,9 C
12.11.2012 05:21 4,9 C 92 % 1021,0 hPa 0,0 l/m 14,8 km/h (3 Bft) W-SW 247 3,7 C 1,7 C
12.11.2012 05:26 4,9 C 92 % 1021,1 hPa 0,0 l/m 7,2 km/h (2 Bft) W-SW 247 3,7 C 3,2 C
12.11.2012 05:31 4,8 C 92 % 1021,1 hPa 0,0 l/m 3,6 km/h (1 Bft) W-SW 247 3,6 C 4,8 C
12.11.2012 05:36 4,8 C 92 % 1021,1 hPa 0,0 l/m 11,5 km/h (2 Bft) W-SW 247 3,6 C 2,1 C
12.11.2012 05:41 4,7 C 92 % 1021,2 hPa 0,0 l/m 15,1 km/h (3 Bft) W 270 3,5 C 1,4 C
12.11.2012 05:46 4,7 C 92 % 1021,1 hPa 0,0 l/m 5,8 km/h (2 Bft) W-SW 247 3,5 C 3,4 C
12.11.2012 05:51 4,7 C 92 % 1021,0 hPa 0,0 l/m 9,4 km/h (2 Bft) W 270 3,5 C 2,4 C
12.11.2012 05:56 4,7 C 92 % 1021,1 hPa 0,0 l/m 8,6 km/h (2 Bft) W 270 3,5 C 2,6 C
12.11.2012 06:01 4,7 C 92 % 1021,1 hPa 0,0 l/m 12,2 km/h (2 Bft) W 270 3,5 C 1,9 C
12.11.2012 06:06 4,8 C 92 % 1021,1 hPa 0,0 l/m 4,0 km/h (1 Bft) S-SW 202 3,6 C 4,8 C
12.11.2012 06:11 4,9 C 92 % 1021,2 hPa 0,0 l/m 7,6 km/h (2 Bft) W-SW 247 3,7 C 3,1 C
12.11.2012 06:16 5,0 C 92 % 1021,3 hPa 0,0 l/m 6,5 km/h (2 Bft) W-SW 247 3,8 C 3,6 C
12.11.2012 06:21 5,1 C 92 % 1021,4 hPa 0,0 l/m 0,0 km/h (0 Bft) W 270 3,9 C 5,1 C
12.11.2012 06:26 5,1 C 92 % 1021,4 hPa 0,0 l/m 10,4 km/h (2 Bft) W-SW 247 3,9 C 2,7 C
12.11.2012 06:31 5,2 C 92 % 1021,6 hPa 0,0 l/m 6,5 km/h (2 Bft) W-SW 247 4,0 C 3,8 C
12.11.2012 06:36 5,3 C 92 % 1021,7 hPa 0,0 l/m 9,7 km/h (2 Bft) W-SW 247 4,1 C 3,1 C
12.11.2012 06:41 5,3 C 92 % 1021,7 hPa 0,0 l/m 4,7 km/h (1 Bft) SW 225 4,1 C 4,5 C
12.11.2012 06:46 5,3 C 92 % 1021,7 hPa 0,0 l/m 10,8 km/h (2 Bft) W-SW 247 4,1 C 2,9 C
12.11.2012 06:51 5,4 C 92 % 1021,8 hPa 0,0 l/m 19,1 km/h (3 Bft) W 270 4,2 C 1,7 C
12.11.2012 06:56 5,6 C 92 % 1021,8 hPa 0,0 l/m 5,8 km/h (2 Bft) W-NW 292 4,4 C 4,5 C
12.11.2012 07:01 5,7 C 93 % 1021,9 hPa 0,0 l/m 5,0 km/h (1 Bft) W 270 4,7 C 4,9 C
12.11.2012 07:06 5,8 C 92 % 1021,8 hPa 0,0 l/m 5,0 km/h (1 Bft) W-SW 247 4,6 C 5,0 C
12.11.2012 07:11 5,8 C 92 % 1022,0 hPa 0,0 l/m 11,9 km/h (2 Bft) SW 225 4,6 C 3,2 C
12.11.2012 07:16 5,8 C 92 % 1021,9 hPa 0,0 l/m 10,1 km/h (2 Bft) W-SW 247 4,6 C 3,6 C
12.11.2012 07:21 5,9 C 92 % 1022,1 hPa 0,0 l/m 18,7 km/h (3 Bft) W-SW 247 4,7 C 2,4 C
12.11.2012 07:26 5,9 C 92 % 1022,3 hPa 0,0 l/m 16,9 km/h (3 Bft) W-SW 247 4,7 C 2,6 C
12.11.2012 07:31 5,9 C 92 % 1022,2 hPa 0,0 l/m 12,2 km/h (2 Bft) W-SW 247 4,7 C 3,3 C
12.11.2012 07:36 5,9 C 92 % 1022,5 hPa 0,0 l/m 6,1 km/h (2 Bft) W-NW 292 4,7 C 4,7 C
12.11.2012 07:41 5,9 C 92 % 1022,5 hPa 0,0 l/m 11,2 km/h (2 Bft) W-NW 292 4,7 C 3,5 C
12.11.2012 07:46 5,9 C 92 % 1022,6 hPa 0,0 l/m 9,0 km/h (2 Bft) W 270 4,7 C 4,0 C
12.11.2012 07:51 5,9 C 92 % 1022,7 hPa 0,0 l/m 6,5 km/h (2 Bft) W 270 4,7 C 4,6 C
12.11.2012 07:56 5,9 C 91 % 1022,9 hPa 0,0 l/m 19,4 km/h (3 Bft) W 270 4,5 C 2,3 C
12.11.2012 08:01 6,1 C 91 % 1022,8 hPa 0,0 l/m 4,3 km/h (1 Bft) NW 315 4,7 C 6,1 C
12.11.2012 08:06 6,1 C 91 % 1022,8 hPa 0,0 l/m 8,3 km/h (2 Bft) W-SW 247 4,7 C 4,4 C
12.11.2012 08:11 6,1 C 91 % 1022,9 hPa 0,0 l/m 15,5 km/h (3 Bft) NW 315 4,7 C 3,0 C
12.11.2012 08:16 6,1 C 91 % 1023,1 hPa 0,0 l/m 6,1 km/h (2 Bft) W-NW 292 4,7 C 5,0 C
12.11.2012 08:21 6,2 C 91 % 1023,1 hPa 0,0 l/m 10,4 km/h (2 Bft) W-SW 247 4,8 C 4,0 C
12.11.2012 08:26 6,2 C 91 % 1023,2 hPa 0,0 l/m 5,0 km/h (1 Bft) W-SW 247 4,8 C 5,4 C
12.11.2012 08:31 6,3 C 91 % 1023,2 hPa 0,0 l/m 9,4 km/h (2 Bft) W-NW 292 4,9 C 4,3 C
12.11.2012 08:36 6,3 C 90 % 1023,3 hPa 0,0 l/m 4,7 km/h (1 Bft) W 270 4,8 C 5,7 C
12.11.2012 08:41 6,6 C 91 % 1023,4 hPa 0,0 l/m 2,5 km/h (1 Bft) W-NW 292 5,2 C 6,6 C
12.11.2012 08:46 6,9 C 90 % 1023,3 hPa 0,0 l/m 6,8 km/h (2 Bft) NW 315 5,4 C 5,7 C
12.11.2012 08:51 7,0 C 89 % 1023,3 hPa 0,0 l/m 9,7 km/h (2 Bft) W-NW 292 5,3 C 5,1 C
12.11.2012 08:56 6,9 C 88 % 1023,3 hPa 0,0 l/m 9,4 km/h (2 Bft) NW 315 5,1 C 5,1 C
12.11.2012 09:01 6,8 C 88 % 1023,3 hPa 0,0 l/m 4,0 km/h (1 Bft) W 270 5,0 C 6,8 C
12.11.2012 09:06 6,8 C 88 % 1023,4 hPa 0,0 l/m 10,4 km/h (2 Bft) NW 315 5,0 C 4,7 C
12.11.2012 09:11 6,7 C 88 % 1023,4 hPa 0,0 l/m 0,0 km/h (0 Bft) W 270 4,9 C 6,7 C
12.11.2012 09:16 6,7 C 88 % 1023,5 hPa 0,0 l/m 6,1 km/h (2 Bft) W 270 4,9 C 5,6 C
12.11.2012 09:21 6,8 C 88 % 1023,6 hPa 0,0 l/m 2,2 km/h (1 Bft) W 270 5,0 C 6,8 C
12.11.2012 09:26 6,8 C 88 % 1023,5 hPa 0,0 l/m 3,2 km/h (1 Bft) W 270 5,0 C 6,8 C
12.11.2012 09:31 6,9 C 88 % 1023,6 hPa 0,0 l/m 6,8 km/h (2 Bft) W-SW 247 5,1 C 5,7 C
12.11.2012 09:36 6,9 C 87 % 1023,6 hPa 0,0 l/m 12,6 km/h (3 Bft) SW 225 4,9 C 4,5 C
12.11.2012 09:41 7,1 C 87 % 1023,7 hPa 0,0 l/m 0,0 km/h (0 Bft) W-SW 247 5,1 C 7,1 C
12.11.2012 09:46 7,3 C 87 % 1023,7 hPa 0,0 l/m 15,5 km/h (3 Bft) W-NW 292 5,3 C 4,5 C
12.11.2012 09:51 7,3 C 86 % 1023,8 hPa 0,0 l/m 9,7 km/h (2 Bft) W-NW 292 5,1 C 5,5 C
12.11.2012 09:56 7,3 C 86 % 1023,7 hPa 0,0 l/m 7,6 km/h (2 Bft) W-SW 247 5,1 C 5,9 C
12.11.2012 10:01 7,2 C 85 % 1023,9 hPa 0,0 l/m 4,0 km/h (1 Bft) W-NW 292 4,9 C 7,2 C
12.11.2012 10:06 7,2 C 85 % 1023,9 hPa 0,0 l/m 8,3 km/h (2 Bft) W 270 4,9 C 5,6 C
12.11.2012 10:11 7,3 C 86 % 1024,0 hPa 0,0 l/m 6,5 km/h (2 Bft) W-SW 247 5,1 C 6,2 C
12.11.2012 10:16 7,3 C 86 % 1024,1 hPa 0,0 l/m 4,0 km/h (1 Bft) SW 225 5,1 C 7,3 C
12.11.2012 10:21 7,5 C 87 % 1024,1 hPa 0,0 l/m 3,6 km/h (1 Bft) W 270 5,5 C 7,5 C
12.11.2012 10:26 7,6 C 87 % 1024,1 hPa 0,0 l/m 5,0 km/h (1 Bft) W 270 5,6 C 7,0 C
12.11.2012 10:31 7,8 C 87 % 1024,2 hPa 0,0 l/m 3,2 km/h (1 Bft) W 270 5,8 C 7,8 C
12.11.2012 10:36 7,9 C 86 % 1024,3 hPa 0,0 l/m 4,7 km/h (1 Bft) W 270 5,7 C 7,5 C
12.11.2012 10:41 8,1 C 86 % 1024,3 hPa 0,0 l/m 15,8 km/h (3 Bft) W 270 5,9 C 5,5 C
12.11.2012 10:46 8,1 C 85 % 1024,1 hPa 0,0 l/m 10,4 km/h (2 Bft) W-SW 247 5,7 C 6,3 C
12.11.2012 10:51 8,3 C 85 % 1023,9 hPa 0,0 l/m 10,8 km/h (2 Bft) W 270 5,9 C 6,5 C
12.11.2012 10:56 8,3 C 83 % 1024,0 hPa 0,0 l/m 10,4 km/h (2 Bft) S-SW 202 5,6 C 6,5 C
12.11.2012 11:01 8,3 C 83 % 1024,1 hPa 0,0 l/m 11,9 km/h (2 Bft) SW 225 5,6 C 6,3 C
12.11.2012 11:06 8,3 C 82 % 1024,2 hPa 0,0 l/m 19,8 km/h (3 Bft) W-SW 247 5,4 C 5,3 C
12.11.2012 11:11 8,3 C 82 % 1024,3 hPa 0,0 l/m 25,2 km/h (4 Bft) W 270 5,4 C 4,7 C
12.11.2012 11:16 8,1 C 83 % 1024,4 hPa 0,0 l/m 19,8 km/h (3 Bft) W 270 5,4 C 5,0 C
12.11.2012 11:21 8,1 C 83 % 1024,3 hPa 0,0 l/m 16,6 km/h (3 Bft) W 270 5,4 C 5,4 C
12.11.2012 11:26 8,1 C 83 % 1024,4 hPa 0,0 l/m 21,2 km/h (4 Bft) W 270 5,4 C 4,9 C
12.11.2012 11:31 8,1 C 83 % 1024,4 hPa 0,0 l/m 7,2 km/h (2 Bft) W 270 5,4 C 7,0 C
12.11.2012 11:36 8,1 C 83 % 1024,4 hPa 0,0 l/m 3,6 km/h (1 Bft) W-SW 247 5,4 C 8,1 C
12.11.2012 11:41 8,1 C 83 % 1024,3 hPa 0,0 l/m 5,0 km/h (1 Bft) W-SW 247 5,4 C 7,6 C
12.11.2012 11:46 8,1 C 82 % 1024,5 hPa 0,0 l/m 8,3 km/h (2 Bft) W-SW 247 5,2 C 6,7 C
12.11.2012 11:51 8,1 C 82 % 1024,6 hPa 0,0 l/m 10,4 km/h (2 Bft) W-SW 247 5,2 C 6,3 C
12.11.2012 11:56 8,1 C 82 % 1024,6 hPa 0,0 l/m 4,0 km/h (1 Bft) W-SW 247 5,2 C 8,1 C
12.11.2012 12:01 8,1 C 82 % 1024,5 hPa 0,0 l/m 6,5 km/h (2 Bft) W 270 5,2 C 7,1 C
12.11.2012 12:06 8,3 C 82 % 1024,5 hPa 0,0 l/m 14,8 km/h (3 Bft) W 270 5,4 C 5,8 C
12.11.2012 12:11 8,5 C 81 % 1024,6 hPa 0,0 l/m 8,3 km/h (2 Bft) W 270 5,4 C 7,2 C
12.11.2012 12:16 8,8 C 81 % 1024,4 hPa 0,0 l/m 9,7 km/h (2 Bft) W-SW 247 5,7 C 7,3 C
12.11.2012 12:21 8,9 C 81 % 1024,4 hPa 0,0 l/m 9,4 km/h (2 Bft) W 270 5,8 C 7,4 C
12.11.2012 12:26 8,9 C 80 % 1024,4 hPa 0,0 l/m 9,0 km/h (2 Bft) W-SW 247 5,6 C 7,5 C
12.11.2012 12:31 9,1 C 81 % 1024,5 hPa 0,0 l/m 16,9 km/h (3 Bft) W-SW 247 6,0 C 6,6 C
12.11.2012 12:36 9,2 C 80 % 1024,5 hPa 0,0 l/m 14,8 km/h (3 Bft) W-SW 247 5,9 C 7,0 C
12.11.2012 12:41 9,4 C 79 % 1024,5 hPa 0,0 l/m 12,2 km/h (2 Bft) S-SW 202 5,9 C 7,6 C
12.11.2012 12:46 9,5 C 78 % 1024,5 hPa 0,0 l/m 19,1 km/h (3 Bft) W 270 5,9 C 6,8 C
12.11.2012 12:51 9,4 C 78 % 1024,6 hPa 0,0 l/m 12,6 km/h (3 Bft) W-SW 247 5,8 C 7,5 C
12.11.2012 12:56 9,3 C 79 % 1024,8 hPa 0,0 l/m 7,6 km/h (2 Bft) W-SW 247 5,8 C 8,3 C
12.11.2012 13:01 9,3 C 79 % 1024,7 hPa 0,0 l/m 9,7 km/h (2 Bft) W 270 5,8 C 7,8 C
12.11.2012 13:06 9,3 C 79 % 1024,7 hPa 0,0 l/m 23,4 km/h (4 Bft) W 270 5,8 C 6,2 C
12.11.2012 13:11 9,2 C 79 % 1024,8 hPa 0,0 l/m 4,7 km/h (1 Bft) S-SW 202 5,8 C 8,9 C
12.11.2012 13:16 9,1 C 80 % 1024,8 hPa 0,0 l/m 4,7 km/h (1 Bft) W 270 5,8 C 8,8 C
12.11.2012 13:21 9,1 C 79 % 1024,9 hPa 0,0 l/m 5,0 km/h (1 Bft) S-SW 202 5,7 C 8,7 C
12.11.2012 13:26 8,9 C 80 % 1025,0 hPa 0,0 l/m 13,0 km/h (3 Bft) W 270 5,6 C 6,8 C
12.11.2012 13:31 8,8 C 80 % 1024,9 hPa 0,0 l/m 5,0 km/h (1 Bft) W 270 5,5 C 8,4 C
12.11.2012 13:36 8,6 C 80 % 1025,0 hPa 0,0 l/m 9,0 km/h (2 Bft) W-NW 292 5,3 C 7,2 C
12.11.2012 13:41 8,5 C 79 % 1025,0 hPa 0,0 l/m 2,5 km/h (1 Bft) W-SW 247 5,1 C 8,5 C
12.11.2012 13:46 8,4 C 79 % 1025,0 hPa 0,0 l/m 5,0 km/h (1 Bft) W-NW 292 5,0 C 7,9 C
12.11.2012 13:51 8,4 C 80 % 1024,9 hPa 0,0 l/m 10,1 km/h (2 Bft) W-NW 292 5,2 C 6,7 C
12.11.2012 13:56 8,4 C 80 % 1024,9 hPa 0,0 l/m 5,4 km/h (1 Bft) W-NW 292 5,2 C 7,8 C
12.11.2012 14:01 8,4 C 80 % 1025,1 hPa 0,0 l/m 3,6 km/h (1 Bft) W 270 5,2 C 8,4 C
12.11.2012 14:06 8,4 C 80 % 1025,1 hPa 0,0 l/m 5,0 km/h (1 Bft) W-SW 247 5,2 C 7,9 C
12.11.2012 14:11 8,4 C 80 % 1025,1 hPa 0,0 l/m 3,2 km/h (1 Bft) W-SW 247 5,2 C 8,4 C
12.11.2012 14:16 8,5 C 80 % 1025,0 hPa 0,0 l/m 9,0 km/h (2 Bft) W 270 5,3 C 7,0 C
12.11.2012 14:21 8,5 C 79 % 1025,0 hPa 0,0 l/m 7,2 km/h (2 Bft) W-SW 247 5,1 C 7,4 C
12.11.2012 14:26 8,5 C 79 % 1025,0 hPa 0,0 l/m 2,2 km/h (1 Bft) W 270 5,1 C 8,5 C
12.11.2012 14:31 8,5 C 79 % 1025,0 hPa 0,0 l/m 15,8 km/h (3 Bft) W-SW 247 5,1 C 6,0 C
12.11.2012 14:36 8,4 C 80 % 1025,1 hPa 0,0 l/m 8,6 km/h (2 Bft) W 270 5,2 C 7,0 C
12.11.2012 14:41 8,4 C 80 % 1025,1 hPa 0,0 l/m 9,4 km/h (2 Bft) W-SW 247 5,2 C 6,8 C
12.11.2012 14:46 8,4 C 80 % 1025,1 hPa 0,0 l/m 9,4 km/h (2 Bft) W-SW 247 5,2 C 6,8 C
12.11.2012 14:51 8,4 C 80 % 1025,2 hPa 0,0 l/m 6,1 km/h (2 Bft) W-SW 247 5,2 C 7,6 C
12.11.2012 14:56 8,4 C 80 % 1025,1 hPa 0,0 l/m 6,8 km/h (2 Bft) W-NW 292 5,2 C 7,4 C
12.11.2012 15:01 8,4 C 80 % 1025,0 hPa 0,0 l/m 5,8 km/h (2 Bft) W-SW 247 5,2 C 7,7 C
12.11.2012 15:06 8,4 C 80 % 1025,0 hPa 0,0 l/m 6,1 km/h (2 Bft) W-SW 247 5,2 C 7,6 C
12.11.2012 15:11 8,4 C 80 % 1025,1 hPa 0,0 l/m 16,6 km/h (3 Bft) W-SW 247 5,2 C 5,7 C
12.11.2012 15:16 8,4 C 80 % 1025,1 hPa 0,0 l/m 10,1 km/h (2 Bft) W-SW 247 5,2 C 6,7 C
12.11.2012 15:21 8,3 C 80 % 1025,1 hPa 0,0 l/m 15,1 km/h (3 Bft) W 270 5,1 C 5,8 C
12.11.2012 15:26 8,3 C 80 % 1025,2 hPa 0,0 l/m 6,1 km/h (2 Bft) W 270 5,1 C 7,5 C
12.11.2012 15:31 8,3 C 80 % 1025,2 hPa 0,0 l/m 3,6 km/h (1 Bft) W-SW 247 5,1 C 8,3 C
12.11.2012 15:36 8,3 C 80 % 1025,3 hPa 0,0 l/m 2,2 km/h (1 Bft) W-SW 247 5,1 C 8,3 C
12.11.2012 15:41 8,2 C 80 % 1025,5 hPa 0,0 l/m 8,3 km/h (2 Bft) W 270 5,0 C 6,8 C
12.11.2012 15:46 8,2 C 80 % 1025,3 hPa 0,0 l/m 4,0 km/h (1 Bft) W-SW 247 5,0 C 8,2 C
12.11.2012 15:51 8,2 C 80 % 1025,3 hPa 0,0 l/m 12,6 km/h (3 Bft) W-SW 247 5,0 C 6,0 C
12.11.2012 15:56 8,1 C 80 % 1025,4 hPa 0,0 l/m 6,8 km/h (2 Bft) SW 225 4,9 C 7,1 C
12.11.2012 16:01 8,1 C 80 % 1025,4 hPa 0,0 l/m 4,0 km/h (1 Bft) SW 225 4,9 C 8,1 C
12.11.2012 16:06 8,1 C 80 % 1025,4 hPa 0,0 l/m 7,2 km/h (2 Bft) W-SW 247 4,9 C 7,0 C
12.11.2012 16:11 8,1 C 80 % 1025,4 hPa 0,0 l/m 3,2 km/h (1 Bft) W-SW 247 4,9 C 8,1 C
12.11.2012 16:16 8,0 C 80 % 1025,5 hPa 0,0 l/m 3,2 km/h (1 Bft) W-SW 247 4,8 C 8,0 C
12.11.2012 16:21 7,9 C 81 % 1025,6 hPa 0,0 l/m 7,2 km/h (2 Bft) W-SW 247 4,8 C 6,7 C
12.11.2012 16:26 7,9 C 81 % 1025,6 hPa 0,0 l/m 1,4 km/h (1 Bft) W-SW 247 4,8 C 7,9 C
12.11.2012 16:31 7,9 C 81 % 1025,6 hPa 0,0 l/m 1,4 km/h (1 Bft) W-SW 247 4,8 C 7,9 C
12.11.2012 16:36 7,8 C 81 % 1025,7 hPa 0,0 l/m 3,2 km/h (1 Bft) W-SW 247 4,7 C 7,8 C
12.11.2012 16:41 7,8 C 81 % 1025,8 hPa 0,0 l/m 0,0 km/h (0 Bft) W-SW 247 4,7 C 7,8 C
12.11.2012 16:46 7,8 C 82 % 1025,9 hPa 0,0 l/m 0,0 km/h (0 Bft) W-SW 247 4,9 C 7,8 C
12.11.2012 16:51 7,7 C 82 % 1025,9 hPa 0,0 l/m 1,8 km/h (1 Bft) W-SW 247 4,8 C 7,7 C
12.11.2012 16:56 7,6 C 82 % 1026,0 hPa 0,0 l/m 0,0 km/h (0 Bft) W-SW 247 4,7 C 7,6 C
12.11.2012 17:01 7,6 C 82 % 1026,1 hPa 0,0 l/m 0,0 km/h (0 Bft) W-SW 247 4,7 C 7,6 C
12.11.2012 17:06 7,6 C 83 % 1026,0 hPa 0,0 l/m 0,0 km/h (0 Bft) W-SW 247 4,9 C 7,6 C
12.11.2012 17:11 7,6 C 83 % 1026,2 hPa 0,0 l/m 1,8 km/h (1 Bft) W-SW 247 4,9 C 7,6 C
12.11.2012 17:16 7,6 C 83 % 1026,3 hPa 0,0 l/m 3,2 km/h (1 Bft) W-SW 247 4,9 C 7,6 C
12.11.2012 17:21 7,6 C 83 % 1026,4 hPa 0,0 l/m 5,8 km/h (2 Bft) W-SW 247 4,9 C 6,8 C
12.11.2012 17:26 7,6 C 83 % 1026,4 hPa 0,0 l/m 1,8 km/h (1 Bft) W-SW 247 4,9 C 7,6 C
12.11.2012 17:31 7,5 C 83 % 1026,5 hPa 0,0 l/m 4,0 km/h (1 Bft) W-SW 247 4,8 C 7,5 C
12.11.2012 17:36 7,5 C 83 % 1026,5 hPa 0,0 l/m 0,0 km/h (0 Bft) W-SW 247 4,8 C 7,5 C
12.11.2012 17:41 7,5 C 84 % 1026,5 hPa 0,0 l/m 0,0 km/h (0 Bft) W-SW 247 5,0 C 7,5 C
12.11.2012 17:46 7,5 C 84 % 1026,5 hPa 0,0 l/m 2,5 km/h (1 Bft) W-SW 247 5,0 C 7,5 C
12.11.2012 17:51 7,5 C 84 % 1026,5 hPa 0,0 l/m 3,6 km/h (1 Bft) W-SW 247 5,0 C 7,5 C
12.11.2012 17:56 7,5 C 84 % 1026,6 hPa 0,0 l/m 0,0 km/h (0 Bft) W-SW 247 5,0 C 7,5 C
12.11.2012 18:01 7,5 C 84 % 1026,5 hPa 0,0 l/m 2,5 km/h (1 Bft) W-SW 247 5,0 C 7,5 C
12.11.2012 18:06 7,4 C 84 % 1026,6 hPa 0,0 l/m 5,0 km/h (1 Bft) S-SW 202 4,9 C 6,8 C
12.11.2012 18:11 7,5 C 84 % 1026,7 hPa 0,0 l/m 2,2 km/h (1 Bft) S-SW 202 5,0 C 7,5 C
12.11.2012 18:16 7,4 C 84 % 1026,7 hPa 0,0 l/m 4,0 km/h (1 Bft) S-SW 202 4,9 C 7,4 C
12.11.2012 18:21 7,4 C 84 % 1026,7 hPa 0,0 l/m 1,8 km/h (1 Bft) S-SW 202 4,9 C 7,4 C
12.11.2012 18:26 7,4 C 84 % 1026,7 hPa 0,0 l/m 2,2 km/h (1 Bft) S-SW 202 4,9 C 7,4 C
12.11.2012 18:31 7,3 C 84 % 1027,0 hPa 0,0 l/m 0,0 km/h (0 Bft) S-SW 202 4,8 C 7,3 C
12.11.2012 18:36 7,2 C 84 % 1027,0 hPa 0,0 l/m 0,0 km/h (0 Bft) S 180 4,7 C 7,2 C
12.11.2012 18:41 7,1 C 84 % 1026,9 hPa 0,0 l/m 2,5 km/h (1 Bft) S 180 4,6 C 7,1 C
12.11.2012 18:46 7,0 C 84 % 1027,0 hPa 0,0 l/m 0,0 km/h (0 Bft) S-SW 202 4,5 C 7,0 C
12.11.2012 18:51 6,9 C 84 % 1027,1 hPa 0,0 l/m 2,9 km/h (1 Bft) S-SW 202 4,4 C 6,9 C
12.11.2012 18:56 6,9 C 85 % 1027,2 hPa 0,0 l/m 1,4 km/h (1 Bft) S-SW 202 4,6 C 6,9 C
12.11.2012 19:01 6,9 C 85 % 1027,2 hPa 0,0 l/m 4,0 km/h (1 Bft) W-SW 247 4,6 C 6,9 C
12.11.2012 19:06 6,9 C 85 % 1027,2 hPa 0,0 l/m 0,0 km/h (0 Bft) S 180 4,6 C 6,9 C
12.11.2012 19:11 6,9 C 85 % 1027,2 hPa 0,0 l/m 2,5 km/h (1 Bft) SW 225 4,6 C 6,9 C
12.11.2012 19:16 6,9 C 85 % 1027,3 hPa 0,0 l/m 2,9 km/h (1 Bft) S-SW 202 4,6 C 6,9 C
12.11.2012 19:21 6,9 C 85 % 1027,3 hPa 0,0 l/m 5,4 km/h (1 Bft) S-SW 202 4,6 C 6,1 C
12.11.2012 19:26 6,9 C 85 % 1027,4 hPa 0,0 l/m 1,4 km/h (1 Bft) S-SW 202 4,6 C 6,9 C
12.11.2012 19:31 6,9 C 85 % 1027,4 hPa 0,0 l/m 5,0 km/h (1 Bft) W-SW 247 4,6 C 6,2 C
12.11.2012 19:36 6,9 C 85 % 1027,5 hPa 0,0 l/m 2,5 km/h (1 Bft) SW 225 4,6 C 6,9 C
12.11.2012 19:41 6,9 C 85 % 1027,5 hPa 0,0 l/m 9,4 km/h (2 Bft) W-SW 247 4,6 C 5,1 C
12.11.2012 19:46 6,9 C 85 % 1027,5 hPa 0,0 l/m 2,2 km/h (1 Bft) S-SW 202 4,6 C 6,9 C
12.11.2012 19:51 6,8 C 85 % 1027,6 hPa 0,0 l/m 0,0 km/h (0 Bft) S-SW 202 4,5 C 6,8 C
12.11.2012 19:56 6,8 C 85 % 1027,6 hPa 0,0 l/m 3,6 km/h (1 Bft) SW 225 4,5 C 6,8 C
12.11.2012 20:01 6,8 C 85 % 1027,6 hPa 0,0 l/m 2,5 km/h (1 Bft) S-SW 202 4,5 C 6,8 C
12.11.2012 20:06 6,8 C 85 % 1027,8 hPa 0,0 l/m 3,6 km/h (1 Bft) SW 225 4,5 C 6,8 C
12.11.2012 20:11 6,8 C 86 % 1027,8 hPa 0,0 l/m 6,1 km/h (2 Bft) S-SW 202 4,6 C 5,8 C
12.11.2012 20:16 6,9 C 86 % 1027,8 hPa 0,0 l/m 5,4 km/h (1 Bft) W-SW 247 4,7 C 6,1 C
12.11.2012 20:21 6,9 C 86 % 1027,8 hPa 0,0 l/m 5,0 km/h (1 Bft) SW 225 4,7 C 6,2 C
12.11.2012 20:26 6,9 C 85 % 1027,9 hPa 0,0 l/m 4,0 km/h (1 Bft) S-SW 202 4,6 C 6,9 C
12.11.2012 20:31 6,9 C 85 % 1027,8 hPa 0,0 l/m 4,7 km/h (1 Bft) W-SW 247 4,6 C 6,3 C
12.11.2012 20:36 7,0 C 85 % 1027,9 hPa 0,0 l/m 4,0 km/h (1 Bft) SW 225 4,7 C 7,0 C
12.11.2012 20:41 6,9 C 85 % 1028,0 hPa 0,0 l/m 7,9 km/h (2 Bft) SW 225 4,6 C 5,4 C
12.11.2012 20:46 6,9 C 85 % 1028,0 hPa 0,0 l/m 9,7 km/h (2 Bft) SW 225 4,6 C 5,0 C
12.11.2012 20:51 6,9 C 85 % 1028,1 hPa 0,0 l/m 6,1 km/h (2 Bft) S-SW 202 4,6 C 5,9 C
12.11.2012 20:56 6,9 C 85 % 1028,1 hPa 0,0 l/m 8,6 km/h (2 Bft) W-SW 247 4,6 C 5,2 C
12.11.2012 21:01 6,9 C 85 % 1028,0 hPa 0,0 l/m 5,0 km/h (1 Bft) W-SW 247 4,6 C 6,2 C
12.11.2012 21:06 6,9 C 85 % 1028,2 hPa 0,0 l/m 6,5 km/h (2 Bft) SW 225 4,6 C 5,8 C
12.11.2012 21:11 6,9 C 85 % 1028,2 hPa 0,0 l/m 8,6 km/h (2 Bft) W-SW 247 4,6 C 5,2 C
12.11.2012 21:16 6,8 C 85 % 1028,1 hPa 0,0 l/m 4,3 km/h (1 Bft) W-SW 247 4,5 C 6,8 C
12.11.2012 21:21 6,8 C 85 % 1028,2 hPa 0,0 l/m 6,8 km/h (2 Bft) SW 225 4,5 C 5,6 C
12.11.2012 21:26 6,8 C 85 % 1028,3 hPa 0,0 l/m 6,1 km/h (2 Bft) W-SW 247 4,5 C 5,8 C
12.11.2012 21:31 6,7 C 85 % 1028,5 hPa 0,0 l/m 3,6 km/h (1 Bft) SW 225 4,4 C 6,7 C
12.11.2012 21:36 6,6 C 85 % 1028,5 hPa 0,0 l/m 7,6 km/h (2 Bft) W-SW 247 4,3 C 5,1 C
12.11.2012 21:41 6,6 C 85 % 1028,5 hPa 0,0 l/m 5,4 km/h (1 Bft) S 180 4,3 C 5,8 C
12.11.2012 21:46 6,5 C 85 % 1028,4 hPa 0,0 l/m 5,0 km/h (1 Bft) W-SW 247 4,2 C 5,8 C
12.11.2012 21:51 6,4 C 84 % 1028,3 hPa 0,0 l/m 4,0 km/h (1 Bft) W-SW 247 3,9 C 6,4 C
12.11.2012 21:56 6,4 C 84 % 1028,4 hPa 0,0 l/m 2,5 km/h (1 Bft) S-SW 202 3,9 C 6,4 C
12.11.2012 22:01 6,3 C 84 % 1028,4 hPa 0,0 l/m 6,5 km/h (2 Bft) SW 225 3,8 C 5,1 C
12.11.2012 22:06 6,2 C 84 % 1028,6 hPa 0,0 l/m 5,8 km/h (2 Bft) SW 225 3,7 C 5,2 C
12.11.2012 22:11 6,1 C 85 % 1028,7 hPa 0,0 l/m 6,1 km/h (2 Bft) SW 225 3,8 C 5,0 C
12.11.2012 22:16 6,1 C 85 % 1028,7 hPa 0,0 l/m 3,6 km/h (1 Bft) S-SW 202 3,8 C 6,1 C
12.11.2012 22:21 6,1 C 85 % 1028,7 hPa 0,0 l/m 7,2 km/h (2 Bft) W-SW 247 3,8 C 4,6 C
12.11.2012 22:26 5,9 C 85 % 1028,8 hPa 0,0 l/m 8,6 km/h (2 Bft) SW 225 3,6 C 4,0 C
12.11.2012 22:31 5,8 C 85 % 1028,8 hPa 0,0 l/m 7,2 km/h (2 Bft) SW 225 3,5 C 4,3 C
12.11.2012 22:36 5,8 C 85 % 1028,7 hPa 0,0 l/m 4,0 km/h (1 Bft) SW 225 3,5 C 5,8 C
12.11.2012 22:41 5,6 C 85 % 1028,7 hPa 0,0 l/m 3,2 km/h (1 Bft) W-SW 247 3,3 C 5,6 C
12.11.2012 22:46 5,6 C 85 % 1028,8 hPa 0,0 l/m 3,2 km/h (1 Bft) S 180 3,3 C 5,6 C
12.11.2012 22:51 5,6 C 85 % 1028,8 hPa 0,0 l/m 3,2 km/h (1 Bft) SW 225 3,3 C 5,6 C
12.11.2012 22:56 5,5 C 85 % 1029,0 hPa 0,0 l/m 3,2 km/h (1 Bft) S-SW 202 3,2 C 5,5 C
12.11.2012 23:01 5,4 C 85 % 1028,9 hPa 0,0 l/m 6,5 km/h (2 Bft) SW 225 3,1 C 4,0 C
12.11.2012 23:06 5,4 C 85 % 1029,0 hPa 0,0 l/m 4,7 km/h (1 Bft) W-SW 247 3,1 C 4,7 C
12.11.2012 23:11 5,3 C 85 % 1028,9 hPa 0,0 l/m 7,9 km/h (2 Bft) W-SW 247 3,0 C 3,5 C
12.11.2012 23:16 5,3 C 86 % 1029,0 hPa 0,0 l/m 7,6 km/h (2 Bft) W-SW 247 3,2 C 3,6 C
12.11.2012 23:21 5,2 C 86 % 1029,0 hPa 0,0 l/m 5,8 km/h (2 Bft) SW 225 3,1 C 4,0 C
12.11.2012 23:26 5,1 C 86 % 1029,0 hPa 0,0 l/m 5,0 km/h (1 Bft) SW 225 3,0 C 4,2 C
12.11.2012 23:31 5,0 C 86 % 1029,1 hPa 0,0 l/m 6,1 km/h (2 Bft) SW 225 2,9 C 3,7 C
12.11.2012 23:36 4,9 C 86 % 1028,8 hPa 0,0 l/m 4,0 km/h (1 Bft) W-SW 247 2,8 C 4,9 C
12.11.2012 23:41 4,9 C 86 % 1028,9 hPa 0,0 l/m 4,7 km/h (1 Bft) W 270 2,8 C 4,1 C
12.11.2012 23:46 4,8 C 86 % 1029,0 hPa 0,0 l/m 2,9 km/h (1 Bft) SW 225 2,7 C 4,8 C
12.11.2012 23:51 4,8 C 86 % 1029,1 hPa 0,0 l/m 2,2 km/h (1 Bft) SW 225 2,7 C 4,8 C
12.11.2012 23:56 4,7 C 86 % 1029,1 hPa 0,0 l/m 0,0 km/h (0 Bft) W-SW 247 2,6 C 4,7 C
_ Min-Zeit 03:41 12:46 00:01 - 01:56 - - 23:56 04:56
Minimum _ 4,3 C 78 % 1018,6 hPa - 0,0 km/h (0 Bft) - - 2,6 C 1,4 C
_ Max-Zeit 12:46 07:01 23:31 00:01 11:11 - - 12:31 13:11
Maximum _ 9,5 C 93 % 1029,1 hPa 0,0 l/m 25,2 km/h
W (4 Bft)
- - 6,0 C 8,9 C
Durchschnitt _ 6,7 C 86 % 1024,1 hPa #0,0 l/m 6,5 km/h (2 Bft) W-SW - 4,5 C 5,7 C
(c) by David Heller